Get Your Rear in Gear 5K Run/Walk 2012

Age Group Results

June 30, 2012


Results By Race Management Systems, Inc.


Men: 0-10 11-19 20-29 30-39 40-49 50-59 60-69 70-99
Women: 0-10 11-19 20-29 30-39 40-49 50-59 60-69 70-99

5K Run

Female Open Winners

Place Name City Bib No Age Overall Total Time Pace
1 Ashley Porter Greenwood NY 146 22 14 20:46 6:42/M
Top

Female 10 and under

Place Name City Bib No Age Overall Total Time Pace
1 Allison Shearer Horseheads NY 107 9 105 31:16 10:05/M
2 Baylee Greeno Elmira NY 39 10 166 37:06 11:58/M
Top

Female 11 to 19

Place Name City Bib No Age Overall Total Time Pace
1 Caitlin Potter Lincolnton NC 98 16 20 21:46 7:01/M
2 Kimberly Gronski Corning NY 138 19 72 27:46 8:57/M
3 Abbie Shepard Horseheads NY 110 19 73 27:49 8:58/M
4 Brooke Levesque Bradford NY 142 12 82 28:51 9:18/M
5 Jacki Williams Wellsburg NY 151 14 88 29:46 9:36/M
6 Jenni Williams Wellsburg NY 152 17 91 29:55 9:39/M
7 Anna Holbrook Corning NY 174 17 108 31:27 10:09/M
8 Ann Milliken Elmira NY 87 19 145 34:28 11:07/M
Top

Female 20 to 29

Place Name City Bib No Age Overall Total Time Pace
1 Melissa Woodward Elmira NY 167 27 16 20:51 6:44/M
2 Katrina Dewitt Trumansburg NY 137 26 32 23:10 7:28/M
3 Lisa Quagliana Horseheads NY 147 26 37 24:00 7:45/M
4 Nikki Menser Dryden NY 204 29 64 27:04 8:44/M
5 Melissa Henry Elmira NY 61 23 74 27:52 8:59/M
6 Alicia Johnson Pine City NY 68 29 76 28:36 9:14/M
7 Michelle Sadler Breesport NY 103 24 80 28:45 9:16/M
8 Danielle Kaffke Horseheads NY 72 20 84 29:10 9:25/M
9 Allison Rich Elmira NY 197 24 90 29:51 9:38/M
10 Kristie Kujawski Horseheads NY 159 25 95 30:14 9:45/M
11 Mary Polidori Essex Junction VT 97 28 99 30:33 9:51/M
12 Megan Hall Horseheads NY 53 29 106 31:22 10:07/M
13 Adrian Jung Horseheads NY 71 22 107 31:27 10:09/M
14 Mary Mullen Elmira NY 91 24 117 32:02 10:20/M
15 Anne Audinwood Elmira NY 3 23 118 32:03 10:20/M
16 Teresa Matterazzo Horseheads NY 194 23 125 32:42 10:33/M
17 Rachel Haar Cayuta NY 50 23 139 34:00 10:58/M
18 Victoria Wilcox Horseheads NY 129 21 143 34:13 11:02/M
19 Mary Milliken Elmira NY 89 23 146 34:29 11:07/M
20 Chelsea Gridley Wellsville NY 44 27 150 34:49 11:14/M
21 Carissa Fleming Horseheads NY 171 22 163 36:17 11:42/M
22 Renee Allington Horseheads NY 131 29 164 36:26 11:45/M
23 Anglea Willis Horseheads NY 154 21 165 36:36 11:48/M
24 Leah Fry Greenwood NY 165 22 176 41:53 13:31/M
25 Jamie Madison Horseheads NY 163 25 177 59:13 19:06/M
26 Trisha Freeman Horseheads NY 5 26 178 59:14 19:06/M
Top

Female 30 to 39

Place Name City Bib No Age Overall Total Time Pace
1 Nicole Griffin 48 32 31 23:08 7:28/M
2 Andrea Robinson Horseheads NY 207 35 38 24:04 7:46/M
3 Lynn Hinman Columbia Cross Roads PA 157 33 47 24:46 7:59/M
4 Melissa Williams Wellsburg NY 130 38 61 26:38 8:35/M
5 Heather D'Alleva Burdett NY 182 35 63 26:56 8:41/M
6 Joelle Paulisczak Odessa NY 95 34 68 27:19 8:49/M
7 Mary Kate Valentine Ithaca NY 121 33 85 29:12 9:25/M
8 Lindsay Southard Glen Burnie MD 114 32 87 29:37 9:33/M
9 Miranda Templar Beaver Dam NY 148 31 93 30:10 9:44/M
10 Adrienne Ruzic Webster NY 185 33 100 30:43 9:55/M
11 Micki Mathews Elmira NY 83 34 104 31:10 10:03/M
12 Colette Kelly Painted Post NY 180 39 109 31:36 10:12/M
13 Darcie Hughes Corning NY 179 39 110 31:43 10:14/M
14 Rebekah Stevens Horseheads NY 116 35 115 31:56 10:18/M
15 Tina Hartzell Kannapolis NC 191 34 123 32:21 10:26/M
16 Michelle Dundas Corning NY 28 34 124 32:35 10:31/M
17 Heather Mac Farlane Watkins Glen NY 181 37 130 32:49 10:35/M
18 Laurelyn Simons Corning NY 112 34 131 32:50 10:35/M
19 Kim Shearer Horseheads NY 108 38 134 33:10 10:42/M
20 Candice Labate Elmira NY 141 30 135 33:16 10:44/M
21 Angela Nichiporcek Campbell NY 201 32 136 33:24 10:46/M
22 Sara Billings Barton NY 8 32 140 34:03 10:59/M
23 Rachel Santiago Elmira NY 104 33 142 34:12 11:02/M
24 Brenda Andrus Horseheads NY 205 34 144 34:26 11:06/M
25 Jamie Heft Monroeton PA 57 30 147 34:33 11:09/M
26 Julie Olinger Bruceton Mills WV 94 39 148 34:36 11:10/M
27 Steve Smith Rochester NY 113 30 149 34:47 11:13/M
28 Amber Hepfer Lawrenceville PA 62 37 151 34:50 11:14/M
29 Mindy King Horseheads NY 76 32 152 34:53 11:15/M
30 Denise Trondsen Horseheads NY 120 39 153 35:08 11:20/M
31 Molly McGinley-Hilliard Breesport NY 84 38 155 35:11 11:21/M
32 Terri Allington Campbell NY 2 33 156 35:12 11:21/M
33 Kimberly Greeno Elmira NY 41 34 157 35:23 11:25/M
34 Christine Rankin Harleysville PA 100 38 158 35:29 11:27/M
35 Meggin Griffin Elmira NY 47 39 172 39:02 12:35/M
36 Melanie Moon Painted Post NY 90 34 175 40:11 12:58/M
Top

Female 40 to 49

Place Name City Bib No Age Overall Total Time Pace
1 Karen McCabe Lodi NY 59 46 24 22:12 7:10/M
2 Mary Jo Maranghi Waverly NY 145 46 52 25:48 8:19/M
3 Rebecca Guinnip Addison NY 49 40 54 26:13 8:27/M
4 Peggy Lubberts Woodhull NY 164 42 79 28:43 9:16/M
5 Linda Gigliello Corning NY 158 43 83 28:52 9:19/M
6 Helen Crea Watkins Glen NY 199 49 86 29:30 9:31/M
7 Teresa Haight Addison NY 51 48 98 30:30 9:50/M
8 Kim Leszyk Corning NY 81 47 101 30:46 9:55/M
9 Sonja Kunath Horseheads NY 79 41 113 31:54 10:17/M
10 Penny MacNamara Avoca NY 144 47 114 31:55 10:18/M
11 Brenda Kipferl Lawrenceville PA 77 47 120 32:06 10:21/M
12 Wendy Cummings Johnson City NY 22 42 126 32:44 10:34/M
13 Johanna Theetge Cayuta NY 149 45 133 33:07 10:41/M
14 Jody Beaudoin Beaver Dams NY 7 45 137 33:26 10:47/M
15 Alison Coyle Sayre PA 19 41 141 34:10 11:01/M
16 Annette Avery Millerton PA 4 43 159 35:31 11:27/M
17 Lynda Thomas Elmira NY 118 40 167 37:18 12:02/M
18 Cheryl Miller Pine City NY 86 48 168 37:27 12:05/M
19 Mary Bloomfield-Brown Dryden NY 203 47 170 37:32 12:06/M
20 Barbara Adams Elmira NY 1 40 171 38:00 12:15/M
Top

Female 50 to 59

Place Name City Bib No Age Overall Total Time Pace
1 Nancy Shepard Horseheads NY 111 57 50 25:31 8:14/M
2 Julie Koski Corning NY 173 51 62 26:50 8:39/M
3 Mary Beth Wayne Horseheads NY 153 50 69 27:23 8:50/M
4 Gale Savino Horseheads NY 200 55 96 30:24 9:48/M
5 Barbara Matterazzo Horseheads NY 193 56 128 32:46 10:34/M
6 Sherry Deats Menlo Park CA 23 53 129 32:47 10:35/M
7 Catherine Bockheim Wellsboro PA 10 52 132 32:51 10:36/M
8 Darlene Harris Hollywood FL 140 52 160 35:43 11:31/M
9 Lorrie Fitzgibbons Freeville NY 208 51 169 37:28 12:05/M
10 Jeannette Meck Pine City NY 85 57 174 39:07 12:37/M
Top

Female 60 to 69

Place Name City Bib No Age Overall Total Time Pace
1 Jean A. Derick Avoca NY 25 69 161 36:01 11:37/M
Top

Male Open Winners

Place Name City Bib No Age Overall Total Time Pace
1 James Derick Big Flats NY 169 46 1 16:49 5:25/M
Top

Male 10 and under

Place Name City Bib No Age Overall Total Time Pace
1 Carter Greeno Elmira NY 40 8 119 32:05 10:21/M
2 Joel Vanskiver Savona NY 124 9 154 35:10 11:21/M
Top

Male 11 to 19

Place Name City Bib No Age Overall Total Time Pace
1 Austin Holbrook Corning NY 176 18 2 18:07 5:51/M
2 Tyler Rodbaugh Horseheads NY 184 18 3 18:24 5:56/M
3 Derek Johnson Horseheads NY 177 17 4 18:30 5:58/M
4 Nicholas Sweet Sayre PA 58 15 6 18:37 6:00/M
5 Daniel Cleary Horseheads NY 132 17 8 18:57 6:07/M
6 Shuwei Chen Horseheads NY 172 16 17 20:54 6:45/M
7 Matthew Cleveland Elmira NY 15 12 46 24:39 7:57/M
8 Jeffrey Harris Beaver Dams NY 55 14 51 25:42 8:17/M
9 Nicholas Cleveland Elmira NY 16 12 57 26:24 8:31/M
10 Jeremy Ernst Horseheads NY 30 11 81 28:48 9:17/M
Top

Male 20 to 29

Place Name City Bib No Age Overall Total Time Pace
1 Arnie Carbaugh Horseheads NY 13 22 11 19:53 6:25/M
2 Thomas Cleveland Beaver Dams NY 17 21 13 20:36 6:39/M
3 Alexandre Lovallo Ithaca NY 82 28 22 22:01 7:06/M
4 Bernard Gridley Oneonta NY 43 28 25 22:32 7:16/M
5 Andrew Dininny Corning NY 26 26 27 22:44 7:20/M
6 Matthew Gridley Wellsville NY 45 25 35 23:50 7:41/M
7 Neil Hanlon Horseheads NY 54 22 45 24:31 7:55/M
8 Eric Gergel Elmira NY 202 25 71 27:25 8:51/M
9 Brandon Theetge Cayuta NY 187 26 77 28:38 9:14/M
10 Chris Schweiger Corning NY 198 26 92 30:00 9:41/M
Top

Male 30 to 39

Place Name City Bib No Age Overall Total Time Pace
1 Jason Husted Elmira NY 67 30 5 18:32 5:59/M
2 Keith Congdon Elmira NY 134 31 10 19:40 6:21/M
3 Adam Gibson Horseheads NY 168 38 12 19:57 6:26/M
4 Kris Thorne Elmira NY 195 30 15 20:48 6:43/M
5 Randy Wilcox Corning NY 128 39 18 21:13 6:51/M
6 Brian Jones Corning NY 178 35 19 21:40 6:59/M
7 Matt Griffin Elmira NY 46 36 29 22:58 7:25/M
8 Chris Paul Gillett PA 183 31 33 23:29 7:35/M
9 Harold Watkins Horseheads NY 206 36 34 23:48 7:41/M
10 Jason Metzger Elmira NY 156 39 36 23:58 7:44/M
11 Michael Bulkley Elmira NY 12 30 39 24:07 7:47/M
12 Joel Dundas Corning NY 27 36 53 25:58 8:23/M
13 Joe Goodman Lindley NY 36 33 60 26:36 8:35/M
14 Bill Stull Painted Post NY 117 37 65 27:10 8:46/M
15 James Heft Monroeton PA 56 33 78 28:39 9:15/M
16 Jason Templar Beaver Dam NY 211 32 94 30:13 9:45/M
17 Satish Chaparala Painted Post NY 14 33 97 30:27 9:49/M
18 Jesse Johnson Pine City NY 70 31 102 30:53 9:58/M
19 Dave Kunath Horseheads NY 78 35 112 31:47 10:15/M
20 Jason Vanskiver Savona NY 123 37 122 32:20 10:26/M
Top

Male 40 to 49

Place Name City Bib No Age Overall Total Time Pace
1 Bill MacNamara Avoca NY 143 49 23 22:08 7:08/M
2 Jeffrey Holbrook Corning NY 175 49 28 22:55 7:24/M
3 Jay Cummings Johnson City NY 20 48 40 24:10 7:48/M
4 Matt Stevens Horseheads NY 115 45 41 24:21 7:51/M
5 Tim Blackwell Corning NY 9 45 42 24:25 7:53/M
6 Mario Scarselletta Horseheads NY 105 47 43 24:27 7:53/M
7 Curtis Olinger Bruceton Mills 93 40 48 24:48 8:00/M
8 Steve Lyon Woodhull NY 192 41 49 24:51 8:01/M
9 Joseph Cleary Horseheads NY 133 45 58 26:26 8:32/M
10 Jeffrey Osmond Sayre PA 155 45 59 26:27 8:32/M
11 Jason Shelhamer Elmira NY 109 40 66 27:12 8:46/M
12 Darrin Hall Horseheads NY 52 40 67 27:14 8:47/M
13 Jeff Hilliard Breesport NY 64 40 116 32:00 10:19/M
14 Richard Collins Painted Post NY 18 46 127 32:45 10:34/M
15 Donald Fleming Horseheads NY 170 48 162 36:05 11:38/M
16 John Harris Hollywood FL 139 45 173 39:04 12:36/M
Top

Male 50 to 59

Place Name City Bib No Age Overall Total Time Pace
1 Jack Cleland Corning NY 210 55 7 18:44 6:03/M
2 Rick Gooshaw Elmira Heights NY 38 50 9 19:16 6:13/M
3 James Quagliana Tilton NH 188 56 21 21:54 7:04/M
4 Donald Yearick Corning NY 186 50 30 22:59 7:25/M
5 David Potter Lincolnton NC 99 51 44 24:30 7:54/M
6 Rodger Keenan Painted Post NY 196 52 56 26:22 8:30/M
7 Brian Henry Elmira NY 60 53 75 28:11 9:05/M
8 Michael Meagher Elmira NY 189 50 89 29:47 9:36/M
9 Daniel Cooper Elmira NY 136 54 103 31:04 10:01/M
10 Matthew Galvin Corning NY 35 51 111 31:46 10:15/M
11 Dan Koski Newfield NY 166 56 138 33:46 10:54/M
Top

Male 60 to 69

Place Name City Bib No Age Overall Total Time Pace
1 Bill Congdon Horseheads NY 135 60 26 22:37 7:18/M
2 John Well Avoca NY 190 63 55 26:20 8:30/M
Top

Male 70 and over

Place Name City Bib No Age Overall Total Time Pace
1 Alton C Derick Avoca NY 24 71 70 27:24 8:50/M
2 Barry Gridley Wellsville NY 42 74 121 32:09 10:22/M